createdAt,value
2023-01-10T00:00:05.576Z,6.74
2023-01-10T00:01:04.720Z,6.74
2023-01-10T00:02:27.287Z,6.81
2023-01-10T00:03:06.001Z,6.76
2023-01-10T00:04:04.705Z,6.73
2023-01-10T00:05:07.389Z,6.80
2023-01-10T00:06:06.630Z,6.79
2023-01-10T00:07:07.613Z,6.81
2023-01-10T00:08:09.014Z,6.84
2023-01-10T00:09:05.463Z,6.88
2023-01-10T00:10:04.460Z,6.89
2023-01-10T00:11:04.685Z,6.89
2023-01-10T00:12:04.483Z,6.87
2023-01-10T00:13:06.497Z,6.91
2023-01-10T00:14:04.468Z,6.89
2023-01-10T00:15:04.982Z,6.88
2023-01-10T00:16:04.605Z,6.73
2023-01-10T00:17:06.484Z,6.85
2023-01-10T00:18:04.431Z,6.70
2023-01-10T00:19:04.432Z,6.74
2023-01-10T00:20:04.405Z,6.73
2023-01-10T00:21:04.547Z,6.70
2023-01-10T00:22:04.504Z,6.81
2023-01-10T00:23:04.738Z,6.87
2023-01-10T00:24:04.607Z,6.84
2023-01-10T00:25:10.010Z,6.88
2023-01-10T00:26:05.418Z,6.81
2023-01-10T00:27:05.647Z,6.91
2023-01-10T00:29:15.687Z,6.92
2023-01-10T00:30:15.678Z,6.81
2023-01-10T00:31:15.698Z,6.71
2023-01-10T00:32:15.630Z,6.74
2023-01-10T00:33:15.638Z,6.71
2023-01-10T00:34:15.698Z,6.69
2023-01-10T00:35:15.601Z,6.67
2023-01-10T00:36:15.706Z,6.59
2023-01-10T00:37:17.747Z,6.71
2023-01-10T00:38:15.876Z,6.66
2023-01-10T00:39:17.155Z,6.61
2023-01-10T00:40:15.654Z,6.66
2023-01-10T00:41:16.552Z,6.66
2023-01-10T00:42:16.419Z,6.66
2023-01-10T00:43:15.718Z,6.55
2023-01-10T00:44:15.634Z,6.56
2023-01-10T00:45:15.989Z,6.51
2023-01-10T00:46:15.657Z,6.51
2023-01-10T00:47:15.613Z,6.59
2023-01-10T00:48:16.275Z,6.61
2023-01-10T00:49:15.796Z,6.70
2023-01-10T00:50:15.813Z,6.67
2023-01-10T00:51:15.671Z,6.59
2023-01-10T00:52:16.428Z,6.66
2023-01-10T00:53:15.519Z,6.55
2023-01-10T00:54:16.162Z,6.54
2023-01-10T00:55:18.543Z,6.54
2023-01-10T00:56:37.930Z,6.54
2023-01-10T00:57:16.891Z,6.54
2023-01-10T00:58:15.537Z,6.56
2023-01-10T00:59:15.479Z,6.61
2023-01-10T01:00:15.416Z,6.66
2023-01-10T01:01:25.256Z,6.66
2023-01-10T01:02:15.567Z,6.64
2023-01-10T01:03:18.264Z,6.61
2023-01-10T01:04:16.963Z,6.73
2023-01-10T01:05:15.449Z,6.66
2023-01-10T01:06:15.603Z,6.66
2023-01-10T01:07:15.397Z,6.69
2023-01-10T01:08:16.437Z,6.70
2023-01-10T01:09:15.483Z,6.66
2023-01-10T01:10:16.725Z,6.66
2023-01-10T01:11:17.996Z,6.64
2023-01-10T01:12:15.463Z,6.54
2023-01-10T01:13:16.319Z,6.64
2023-01-10T01:14:15.391Z,6.61
2023-01-10T01:15:18.399Z,6.55
2023-01-10T01:16:15.308Z,6.59
2023-01-10T01:17:20.223Z,6.59
2023-01-10T01:18:19.508Z,6.66
2023-01-10T01:19:16.902Z,6.66
2023-01-10T01:20:15.156Z,6.69
2023-01-10T01:21:15.287Z,6.66
2023-01-10T01:22:15.187Z,6.67
2023-01-10T01:23:15.691Z,6.59
2023-01-10T01:24:15.261Z,6.59
2023-01-10T01:25:23.206Z,6.55
2023-01-10T01:26:15.208Z,6.62
2023-01-10T01:27:15.213Z,6.55
2023-01-10T01:28:15.142Z,6.55
2023-01-10T01:29:17.268Z,6.59
2023-01-10T01:30:15.399Z,6.58
2023-01-10T01:31:16.968Z,6.52
2023-01-10T01:32:15.084Z,6.58
2023-01-10T01:33:15.152Z,6.58
2023-01-10T01:34:15.104Z,6.64
2023-01-10T01:35:15.251Z,6.71
2023-01-10T01:36:15.881Z,6.73
2023-01-10T01:37:15.224Z,6.70
2023-01-10T01:38:17.599Z,6.70
2023-01-10T01:39:16.233Z,6.67
2023-01-10T01:40:16.833Z,6.61
2023-01-10T01:41:15.898Z,6.70
2023-01-10T01:42:18.391Z,6.66
2023-01-10T01:43:18.224Z,6.59
2023-01-10T01:44:14.915Z,6.64
2023-01-10T01:45:15.221Z,6.52
2023-01-10T01:46:15.811Z,6.61
2023-01-10T01:47:17.444Z,6.62
2023-01-10T01:48:16.789Z,6.62
2023-01-10T01:49:16.879Z,6.61
2023-01-10T01:50:14.949Z,6.64
2023-01-10T01:51:15.527Z,6.61
2023-01-10T01:52:15.004Z,6.69
2023-01-10T01:53:14.871Z,6.73
2023-01-10T01:54:14.989Z,6.66
2023-01-10T01:55:14.892Z,6.71
2023-01-10T01:56:14.926Z,6.70
2023-01-10T01:57:14.865Z,6.59
2023-01-10T01:58:18.267Z,6.58
2023-01-10T01:59:15.913Z,6.64
2023-01-10T02:00:15.018Z,6.61
2023-01-10T02:01:15.117Z,6.58
2023-01-10T02:02:15.195Z,6.61
2023-01-10T02:03:16.735Z,6.66
2023-01-10T02:04:17.946Z,6.66
2023-01-10T02:05:17.390Z,6.59
2023-01-10T02:06:14.975Z,6.66
2023-01-10T02:07:16.011Z,6.71
2023-01-10T02:08:17.416Z,6.62
2023-01-10T02:09:18.737Z,6.67
2023-01-10T02:10:14.942Z,6.67
2023-01-10T02:11:18.457Z,6.67
2023-01-10T02:12:14.697Z,6.62
2023-01-10T02:13:15.286Z,6.73
2023-01-10T02:14:14.778Z,6.74
2023-01-10T02:15:17.699Z,6.70
2023-01-10T02:16:14.792Z,6.73
2023-01-10T02:17:17.234Z,6.70
2023-01-10T02:18:14.561Z,6.67
2023-01-10T02:19:14.598Z,6.58
2023-01-10T02:20:15.619Z,6.69
2023-01-10T02:21:14.730Z,6.62
2023-01-10T02:22:14.583Z,6.62
2023-01-10T02:23:14.702Z,6.61
2023-01-10T02:24:14.640Z,6.64
2023-01-10T02:25:14.616Z,6.61
2023-01-10T02:26:14.578Z,6.62
2023-01-10T02:27:14.533Z,6.64
2023-01-10T02:28:17.629Z,6.69
2023-01-10T02:29:14.850Z,6.64
2023-01-10T02:30:14.665Z,6.67
2023-01-10T02:31:14.660Z,6.70
2023-01-10T02:32:14.489Z,6.64
2023-01-10T02:33:14.605Z,6.73
2023-01-10T02:34:14.819Z,6.79
2023-01-10T02:35:14.749Z,6.76
2023-01-10T02:36:18.962Z,6.73
2023-01-10T02:37:15.178Z,6.70
2023-01-10T02:38:14.338Z,6.76
2023-01-10T02:39:15.751Z,6.76
2023-01-10T02:40:14.317Z,6.71
2023-01-10T02:41:16.785Z,6.73
2023-01-10T02:42:17.232Z,6.74
2023-01-10T02:43:16.317Z,6.76
2023-01-10T02:44:16.189Z,6.81
2023-01-10T02:45:17.069Z,6.81
2023-01-10T02:46:15.039Z,6.81
2023-01-10T02:47:15.658Z,6.88
2023-01-10T02:48:15.827Z,6.88
2023-01-10T02:49:17.329Z,6.84
2023-01-10T02:50:14.371Z,6.91
2023-01-10T02:51:14.314Z,6.88
2023-01-10T02:52:16.490Z,6.91
2023-01-10T02:53:16.918Z,6.88
2023-01-10T02:54:15.992Z,6.95
2023-01-10T02:55:15.506Z,6.87
2023-01-10T02:56:22.043Z,6.91
2023-01-10T02:57:14.267Z,6.89
2023-01-10T02:58:14.287Z,6.81
2023-01-10T02:59:14.401Z,6.81
2023-01-10T03:00:15.881Z,6.66
2023-01-10T03:01:15.846Z,6.76
2023-01-10T03:02:16.909Z,6.80
2023-01-10T03:03:14.400Z,6.79
2023-01-10T03:04:14.144Z,6.80
2023-01-10T03:05:14.426Z,6.85
2023-01-10T03:06:16.352Z,6.84
2023-01-10T03:07:14.013Z,6.85
2023-01-10T03:08:17.675Z,6.81
2023-01-10T03:09:15.155Z,6.71
2023-01-10T03:10:16.430Z,6.73
2023-01-10T03:11:15.453Z,6.64
2023-01-10T03:12:14.202Z,6.74
2023-01-10T03:13:14.075Z,6.77
2023-01-10T03:14:16.312Z,6.77
2023-01-10T03:15:16.307Z,6.81
2023-01-10T03:16:14.828Z,6.81
2023-01-10T03:17:13.935Z,6.89
2023-01-10T03:18:15.039Z,6.71
2023-01-10T03:19:15.065Z,6.73
2023-01-10T03:20:14.092Z,6.84
2023-01-10T03:21:15.715Z,6.71
2023-01-10T03:22:16.099Z,6.81
2023-01-10T03:23:15.194Z,6.71
2023-01-10T03:24:13.928Z,6.77
2023-01-10T03:25:13.961Z,6.70
2023-01-10T03:26:15.335Z,6.84
2023-01-10T03:27:17.696Z,6.71
2023-01-10T03:28:13.916Z,6.69
2023-01-10T03:29:14.102Z,6.71
2023-01-10T03:30:15.227Z,6.64
2023-01-10T03:31:15.966Z,6.73
2023-01-10T03:32:15.327Z,6.69
2023-01-10T03:33:13.955Z,6.70
2023-01-10T03:35:36.649Z,6.61
2023-01-10T03:36:36.569Z,6.61
2023-01-10T03:37:38.419Z,6.66
2023-01-10T03:38:38.427Z,6.55
2023-01-10T03:39:38.971Z,6.56
2023-01-10T03:40:40.185Z,6.69
2023-01-10T03:41:39.226Z,6.62
2023-01-10T03:42:38.860Z,6.67
2023-01-10T03:43:36.635Z,6.66
2023-01-10T03:44:36.601Z,6.62
2023-01-10T03:45:41.074Z,6.56
2023-01-10T03:46:40.380Z,6.70
2023-01-10T03:47:40.285Z,6.61
2023-01-10T03:48:38.696Z,6.55
2023-01-10T03:49:36.494Z,6.56
2023-01-10T03:50:39.971Z,6.51
2023-01-10T03:51:38.062Z,6.58
2023-01-10T03:52:37.578Z,6.58
2023-01-10T03:53:36.623Z,6.54
2023-01-10T03:54:36.520Z,6.52
2023-01-10T03:55:36.447Z,6.56
2023-01-10T03:56:36.861Z,6.51
2023-01-10T03:57:39.432Z,6.51
2023-01-10T03:58:36.588Z,6.37
2023-01-10T03:59:39.504Z,6.38
2023-01-10T04:00:38.741Z,6.34
2023-01-10T04:01:43.608Z,6.33
2023-01-10T04:02:37.668Z,6.34
2023-01-10T04:03:39.855Z,6.34
2023-01-10T04:04:37.492Z,6.40
2023-01-10T04:05:36.558Z,6.25
2023-01-10T04:06:36.396Z,6.30
2023-01-10T04:07:38.135Z,6.28
2023-01-10T04:08:37.057Z,6.33
2023-01-10T04:09:37.374Z,6.27
2023-01-10T04:10:36.304Z,6.25
2023-01-10T04:11:36.733Z,6.30
2023-01-10T04:12:36.242Z,6.19
2023-01-10T04:13:36.346Z,6.27
2023-01-10T04:14:37.969Z,6.19
2023-01-10T04:15:36.341Z,6.04
2023-01-10T04:16:39.462Z,6.06
2023-01-10T04:17:36.256Z,6.03
2023-01-10T04:19:00.007Z,6.09
2023-01-10T04:19:37.573Z,6.04
2023-01-10T04:20:36.830Z,6.04
2023-01-10T04:21:36.804Z,6.04
2023-01-10T04:22:44.817Z,5.96
2023-01-10T04:23:36.239Z,5.97
2023-01-10T04:24:36.925Z,5.93
2023-01-10T04:25:37.457Z,6.00
2023-01-10T04:26:37.096Z,5.99
2023-01-10T04:27:38.446Z,5.96
2023-01-10T04:28:37.406Z,5.83
2023-01-10T04:29:36.650Z,5.99
2023-01-10T04:30:37.225Z,5.96
2023-01-10T04:31:38.184Z,5.90
2023-01-10T04:32:38.643Z,5.91
2023-01-10T04:33:39.376Z,5.85
2023-01-10T04:34:38.549Z,5.82
2023-01-10T04:35:36.223Z,5.79
2023-01-10T04:36:36.019Z,5.85
2023-01-10T04:37:38.916Z,5.85
2023-01-10T04:38:37.668Z,5.83
2023-01-10T04:39:38.292Z,5.79
2023-01-10T04:40:35.980Z,5.82
2023-01-10T04:41:38.233Z,5.85
2023-01-10T04:42:39.363Z,5.89
2023-01-10T04:43:37.259Z,5.83
2023-01-10T04:44:38.749Z,5.76
2023-01-10T04:45:36.088Z,5.71
2023-01-10T04:46:35.922Z,5.74
2023-01-10T04:47:37.348Z,5.65
2023-01-10T04:48:35.943Z,5.60
2023-01-10T04:49:35.910Z,5.60
2023-01-10T04:50:35.843Z,5.60
2023-01-10T04:51:36.861Z,5.54
2023-01-10T04:52:38.364Z,5.61
2023-01-10T04:53:35.953Z,5.63
2023-01-10T04:54:43.863Z,5.61
2023-01-10T04:55:35.830Z,5.51
2023-01-10T04:56:38.035Z,5.49
2023-01-10T04:57:37.781Z,5.49
2023-01-10T04:58:35.849Z,5.43
2023-01-10T04:59:38.419Z,5.40
2023-01-10T05:00:37.300Z,5.40
2023-01-10T05:01:35.797Z,5.27
2023-01-10T05:02:36.002Z,5.33
2023-01-10T05:03:37.056Z,5.38
2023-01-10T05:04:41.991Z,5.35
2023-01-10T05:05:37.149Z,5.21
2023-01-10T05:06:36.207Z,5.24
2023-01-10T05:07:36.574Z,5.20
2023-01-10T05:08:37.884Z,5.21
2023-01-10T05:09:35.765Z,5.22
2023-01-10T05:10:35.759Z,5.22
2023-01-10T05:11:35.881Z,5.20
2023-01-10T05:12:38.405Z,5.20
2023-01-10T05:13:37.231Z,5.17
2023-01-10T05:14:39.420Z,5.15
2023-01-10T05:15:35.571Z,5.18
2023-01-10T05:16:36.790Z,5.07
2023-01-10T05:17:35.585Z,5.09
2023-01-10T05:18:37.172Z,5.12
2023-01-10T05:19:36.179Z,5.04
2023-01-10T05:20:35.687Z,5.07
2023-01-10T05:21:37.493Z,5.04
2023-01-10T05:22:37.559Z,5.00
2023-01-10T05:23:35.451Z,5.09
2023-01-10T05:24:35.622Z,5.02
2023-01-10T05:25:35.657Z,4.99
2023-01-10T05:26:36.152Z,5.04
2023-01-10T05:27:48.875Z,4.94
2023-01-10T05:28:35.682Z,4.99
2023-01-10T05:29:35.537Z,4.96
2023-01-10T05:30:35.523Z,4.96
2023-01-10T05:31:35.499Z,4.91
2023-01-10T05:32:35.403Z,4.96
2023-01-10T05:33:39.496Z,4.89
2023-01-10T05:34:38.896Z,4.85
2023-01-10T05:35:35.695Z,4.88
2023-01-10T05:36:36.447Z,4.78
2023-01-10T05:37:35.350Z,4.84
2023-01-10T05:38:36.164Z,4.86
2023-01-10T05:39:36.627Z,4.82
2023-01-10T05:40:35.419Z,4.77
2023-01-10T05:41:35.408Z,4.86
2023-01-10T05:42:36.906Z,4.77
2023-01-10T05:43:35.385Z,4.72
2023-01-10T05:44:35.253Z,4.70
2023-01-10T05:45:36.172Z,4.67
2023-01-10T05:46:35.216Z,4.62
2023-01-10T05:47:35.302Z,4.69
2023-01-10T05:48:36.483Z,4.72
2023-01-10T05:49:35.790Z,4.73
2023-01-10T05:50:35.264Z,4.73
2023-01-10T05:51:35.304Z,4.78
2023-01-10T05:52:35.894Z,4.75
2023-01-10T05:53:35.867Z,4.75
2023-01-10T05:54:37.820Z,4.85
2023-01-10T05:55:37.468Z,4.85
2023-01-10T05:56:37.901Z,4.78
2023-01-10T05:57:40.302Z,4.91
2023-01-10T05:58:45.484Z,4.89
2023-01-10T05:59:36.741Z,4.91
2023-01-10T06:00:39.356Z,4.85
2023-01-10T06:01:36.877Z,4.96
2023-01-10T06:02:35.808Z,4.99
2023-01-10T06:03:35.867Z,4.97
2023-01-10T06:04:37.090Z,5.04
2023-01-10T06:05:36.105Z,5.02
2023-01-10T06:06:38.733Z,5.04
2023-01-10T06:07:36.072Z,5.10
2023-01-10T06:08:35.615Z,5.12
2023-01-10T06:09:35.979Z,5.12
2023-01-10T06:10:36.730Z,5.17
2023-01-10T06:11:35.501Z,5.21
2023-01-10T06:12:35.185Z,5.27
2023-01-10T06:13:35.589Z,5.27
2023-01-10T06:14:34.976Z,5.25
2023-01-10T06:15:36.781Z,5.31
2023-01-10T06:16:35.418Z,5.30
2023-01-10T06:17:35.827Z,5.30
2023-01-10T06:18:35.764Z,5.40
2023-01-10T06:19:35.410Z,5.25
2023-01-10T06:20:36.568Z,5.24
2023-01-10T06:21:36.079Z,5.27
2023-01-10T06:22:35.656Z,5.17
2023-01-10T06:23:35.841Z,5.24
2023-01-10T06:24:35.562Z,5.31
2023-01-10T06:25:35.349Z,5.25
2023-01-10T06:26:35.435Z,5.24
2023-01-10T06:27:35.162Z,5.31
2023-01-10T06:28:35.445Z,5.27
2023-01-10T06:29:35.667Z,5.35
2023-01-10T06:30:35.661Z,5.25
2023-01-10T06:31:34.842Z,5.22
2023-01-10T06:32:36.144Z,5.12
2023-01-10T06:33:36.426Z,5.25
2023-01-10T06:34:36.485Z,5.30
2023-01-10T06:35:35.102Z,5.28
2023-01-10T06:36:39.294Z,5.12
2023-01-10T06:37:35.576Z,5.22
2023-01-10T06:38:34.714Z,5.25
2023-01-10T06:39:34.680Z,5.22
2023-01-10T06:40:34.596Z,5.27
2023-01-10T06:41:34.607Z,5.27
2023-01-10T06:42:35.023Z,5.28
2023-01-10T06:43:35.498Z,5.31
2023-01-10T06:44:34.645Z,5.25
2023-01-10T06:45:35.068Z,5.27
2023-01-10T06:46:34.601Z,5.25
2023-01-10T06:47:34.954Z,5.28
2023-01-10T06:48:35.445Z,5.25
2023-01-10T06:49:34.507Z,5.35
2023-01-10T06:50:34.503Z,5.38
2023-01-10T06:51:34.464Z,5.24
2023-01-10T06:52:34.492Z,5.42
2023-01-10T06:53:34.444Z,5.25
2023-01-10T06:54:34.428Z,5.33
2023-01-10T06:55:34.420Z,5.24
2023-01-10T06:56:34.420Z,5.35
2023-01-10T06:57:34.415Z,5.36
2023-01-10T06:58:34.379Z,5.27
2023-01-10T06:59:34.392Z,5.36
2023-01-10T07:00:34.381Z,5.27
2023-01-10T07:01:34.536Z,5.30
2023-01-10T07:02:34.342Z,5.35
2023-01-10T07:03:34.383Z,5.30
2023-01-10T07:04:34.321Z,5.27
2023-01-10T07:05:34.334Z,5.27
2023-01-10T07:06:34.317Z,5.24
2023-01-10T07:07:34.284Z,5.13
2023-01-10T07:08:34.287Z,5.21
2023-01-10T07:09:34.284Z,5.18
2023-01-10T07:10:34.255Z,5.25
2023-01-10T07:11:34.256Z,5.25
2023-01-10T07:12:34.226Z,5.30
2023-01-10T07:13:34.227Z,5.27
2023-01-10T07:14:34.230Z,5.13
2023-01-10T07:15:34.197Z,5.27
2023-01-10T07:16:34.203Z,5.21
2023-01-10T07:17:34.183Z,5.21
2023-01-10T07:18:34.192Z,5.15
2023-01-10T07:19:34.175Z,5.07
2023-01-10T07:20:34.144Z,5.21
2023-01-10T07:21:34.137Z,5.07
2023-01-10T07:22:34.123Z,5.00
2023-01-10T07:23:34.153Z,5.04
2023-01-10T07:24:34.401Z,5.02
2023-01-10T07:25:34.115Z,4.97
2023-01-10T07:26:34.089Z,4.80
2023-01-10T07:27:34.081Z,4.72
2023-01-10T07:28:34.060Z,4.66
2023-01-10T07:29:34.086Z,4.69
2023-01-10T07:30:34.032Z,4.72
2023-01-10T07:31:34.099Z,4.73
2023-01-10T07:32:34.014Z,4.72
2023-01-10T07:33:34.030Z,4.72
2023-01-10T07:34:33.998Z,4.77
2023-01-10T07:35:34.002Z,4.72
2023-01-10T07:36:33.990Z,4.73
2023-01-10T07:37:33.973Z,4.73
2023-01-10T07:38:33.950Z,4.67
2023-01-10T07:39:33.949Z,4.63
2023-01-10T07:40:33.944Z,4.65
2023-01-10T07:41:33.944Z,4.60
2023-01-10T07:42:33.913Z,4.62
2023-01-10T07:43:33.945Z,4.60
2023-01-10T07:44:33.884Z,4.62
2023-01-10T07:45:33.878Z,4.62
2023-01-10T07:46:33.947Z,4.52
2023-01-10T07:47:33.878Z,4.54
2023-01-10T07:48:33.850Z,4.58
2023-01-10T07:49:33.835Z,4.58
2023-01-10T07:50:33.831Z,4.45
2023-01-10T07:51:33.828Z,4.40
2023-01-10T07:52:33.797Z,4.42
2023-01-10T07:53:33.807Z,4.41
2023-01-10T07:54:33.783Z,4.42
2023-01-10T07:55:33.783Z,4.44
2023-01-10T07:56:33.811Z,4.47
2023-01-10T07:57:33.762Z,4.41
2023-01-10T07:58:33.762Z,4.37
2023-01-10T07:59:33.750Z,4.42
2023-01-10T08:00:33.719Z,4.32
2023-01-10T08:01:33.836Z,4.37
2023-01-10T08:02:33.793Z,4.30
2023-01-10T08:03:33.889Z,4.27
2023-01-10T08:04:33.671Z,4.30
2023-01-10T08:05:33.709Z,4.24
2023-01-10T08:06:33.669Z,4.26
2023-01-10T08:07:33.642Z,4.18
2023-01-10T08:08:33.631Z,4.29
2023-01-10T08:09:33.630Z,4.23
2023-01-10T08:10:33.629Z,4.29
2023-01-10T08:11:33.624Z,4.32
2023-01-10T08:12:33.607Z,4.30
2023-01-10T08:13:33.600Z,4.30
2023-01-10T08:14:33.647Z,4.41
2023-01-10T08:15:33.560Z,4.30
2023-01-10T08:16:33.549Z,4.36
2023-01-10T08:17:33.550Z,4.36
2023-01-10T08:18:33.543Z,4.32
2023-01-10T08:19:33.516Z,4.41
2023-01-10T08:20:33.503Z,4.40
2023-01-10T08:21:33.492Z,4.44
2023-01-10T08:22:33.479Z,4.42
2023-01-10T08:23:33.501Z,4.41
2023-01-10T08:24:33.480Z,4.44
2023-01-10T08:25:33.454Z,4.52
2023-01-10T08:26:33.443Z,4.55
2023-01-10T08:27:33.438Z,4.47
2023-01-10T08:28:33.444Z,4.54
2023-01-10T08:29:33.419Z,4.63
2023-01-10T08:30:33.402Z,4.60
2023-01-10T08:31:33.413Z,4.66
2023-01-10T08:32:33.368Z,4.60
2023-01-10T08:33:33.394Z,4.65
2023-01-10T08:34:33.352Z,4.63
2023-01-10T08:35:33.355Z,4.69
2023-01-10T08:36:33.332Z,4.67
2023-01-10T08:37:33.322Z,4.65
2023-01-10T08:38:33.355Z,4.63
2023-01-10T08:39:33.304Z,4.66
2023-01-10T08:40:33.287Z,4.75
2023-01-10T08:41:33.288Z,4.78
2023-01-10T08:42:33.267Z,4.69
2023-01-10T08:43:33.274Z,4.73
2023-01-10T08:44:33.258Z,4.72
2023-01-10T08:45:33.249Z,4.78
2023-01-10T08:46:33.299Z,4.84
2023-01-10T08:47:34.125Z,4.80
2023-01-10T08:48:33.200Z,4.82
2023-01-10T08:49:33.204Z,4.91
2023-01-10T08:50:33.217Z,4.97
2023-01-10T08:51:33.175Z,5.10
2023-01-10T08:52:33.174Z,5.25
2023-01-10T08:53:33.161Z,5.30
2023-01-10T08:54:33.170Z,5.35
2023-01-10T08:55:33.129Z,5.54
2023-01-10T08:56:33.127Z,5.65
2023-01-10T08:57:33.130Z,5.68
2023-01-10T08:58:33.092Z,5.85
2023-01-10T08:59:33.096Z,5.97
2023-01-10T09:00:33.093Z,5.99
2023-01-10T09:01:33.193Z,6.03
2023-01-10T09:02:33.160Z,6.03
2023-01-10T09:03:33.043Z,6.28
2023-01-10T09:04:33.272Z,6.31
2023-01-10T09:05:33.116Z,6.33
2023-01-10T09:06:33.004Z,6.51
2023-01-10T09:07:33.022Z,6.44
2023-01-10T09:08:33.006Z,6.43
2023-01-10T09:09:32.998Z,6.52
2023-01-10T09:10:32.968Z,6.55
2023-01-10T09:11:32.975Z,6.64
2023-01-10T09:12:32.968Z,6.64
2023-01-10T09:13:32.939Z,6.69
2023-01-10T09:14:32.919Z,6.84
2023-01-10T09:15:32.910Z,6.91
2023-01-10T09:16:32.931Z,6.94
2023-01-10T09:17:32.943Z,6.99
2023-01-10T09:18:32.892Z,7.07
2023-01-10T09:19:32.884Z,7.05
2023-01-10T09:20:32.878Z,7.06
2023-01-10T09:21:32.848Z,7.06
2023-01-10T09:22:32.861Z,7.10
2023-01-10T09:23:33.986Z,7.13
2023-01-10T09:24:32.819Z,7.16
2023-01-10T09:25:32.814Z,7.30
2023-01-10T09:26:32.802Z,7.13
2023-01-10T09:27:32.787Z,7.15
2023-01-10T09:28:32.787Z,7.24
2023-01-10T09:29:32.787Z,7.31
2023-01-10T09:30:32.757Z,7.39
2023-01-10T09:31:32.836Z,7.50
2023-01-10T09:32:32.743Z,7.57
2023-01-10T09:33:45.638Z,7.61
2023-01-10T09:34:33.721Z,7.69
2023-01-10T09:35:32.724Z,7.74
2023-01-10T09:36:32.701Z,7.69
2023-01-10T09:37:32.675Z,7.71
2023-01-10T09:38:32.689Z,7.80
2023-01-10T09:39:32.703Z,7.90
2023-01-10T09:40:32.668Z,8.04
2023-01-10T09:41:32.651Z,8.15
2023-01-10T09:42:32.645Z,8.12
2023-01-10T09:43:32.628Z,8.23
2023-01-10T09:44:32.617Z,8.43
2023-01-10T09:45:32.598Z,8.52
2023-01-10T09:46:32.622Z,8.44
2023-01-10T09:47:32.586Z,8.50
2023-01-10T09:48:32.600Z,8.70
2023-01-10T09:49:32.604Z,8.61
2023-01-10T09:50:32.540Z,8.68
2023-01-10T09:51:34.193Z,8.59
2023-01-10T09:52:32.527Z,8.65
2023-01-10T09:53:32.526Z,8.55
2023-01-10T09:54:32.508Z,8.55
2023-01-10T09:55:32.759Z,8.55
2023-01-10T09:56:32.470Z,8.66
2023-01-10T09:57:32.487Z,8.74
2023-01-10T09:58:32.470Z,8.76
2023-01-10T09:59:32.466Z,8.96
2023-01-10T10:00:32.434Z,8.92
2023-01-10T10:01:32.417Z,8.96
2023-01-10T10:02:32.401Z,8.98
2023-01-10T10:03:32.438Z,8.76
2023-01-10T10:04:32.484Z,8.76
2023-01-10T10:05:32.377Z,8.89
2023-01-10T10:06:32.370Z,8.83
2023-01-10T10:07:32.369Z,8.66
2023-01-10T10:08:32.348Z,8.81
2023-01-10T10:09:32.327Z,8.92
2023-01-10T10:10:32.316Z,8.95
2023-01-10T10:11:32.339Z,8.77
2023-01-10T10:12:32.295Z,8.80
2023-01-10T10:13:32.301Z,8.83
2023-01-10T10:14:32.272Z,8.91
2023-01-10T10:15:32.267Z,8.89
2023-01-10T10:16:32.342Z,8.92
2023-01-10T10:17:32.272Z,9.04
2023-01-10T10:18:32.243Z,8.99
2023-01-10T10:19:32.227Z,8.98
2023-01-10T10:20:32.231Z,9.11
2023-01-10T10:21:32.203Z,9.04
2023-01-10T10:22:32.211Z,9.17
2023-01-10T10:23:34.120Z,8.96
2023-01-10T10:24:32.168Z,8.91
2023-01-10T10:25:32.180Z,8.92
2023-01-10T10:26:32.145Z,9.01
2023-01-10T10:27:32.135Z,9.02
2023-01-10T10:28:32.137Z,9.08
2023-01-10T10:29:32.138Z,8.98
2023-01-10T10:30:32.103Z,8.95
2023-01-10T10:31:32.166Z,8.91
2023-01-10T10:32:32.095Z,8.91
2023-01-10T10:33:32.080Z,8.91
2023-01-10T10:34:32.076Z,8.89
2023-01-10T10:35:32.072Z,8.92
2023-01-10T10:36:32.056Z,8.91
2023-01-10T10:37:32.030Z,8.83
2023-01-10T10:38:32.019Z,8.81
2023-01-10T10:39:32.025Z,8.86
2023-01-10T10:40:32.007Z,8.73
2023-01-10T10:41:32.005Z,8.80
2023-01-10T10:42:31.977Z,8.84
2023-01-10T10:43:31.969Z,8.94
2023-01-10T10:44:31.983Z,8.81
2023-01-10T10:45:31.962Z,8.83
2023-01-10T10:46:31.938Z,8.89
2023-01-10T10:47:31.919Z,8.87
2023-01-10T10:48:31.935Z,8.80
2023-01-10T10:49:31.895Z,8.86
2023-01-10T10:50:31.885Z,8.91
2023-01-10T10:51:31.874Z,8.92
2023-01-10T10:52:31.892Z,8.77
2023-01-10T10:53:31.870Z,8.80
2023-01-10T10:54:31.860Z,8.84
2023-01-10T10:55:31.832Z,8.94
2023-01-10T10:56:31.819Z,8.96
2023-01-10T10:57:31.827Z,8.96
2023-01-10T10:58:31.799Z,9.02
2023-01-10T10:59:31.801Z,9.01
2023-01-10T11:00:31.800Z,9.02
2023-01-10T11:01:31.966Z,8.99
2023-01-10T11:02:31.774Z,9.13
2023-01-10T11:03:31.753Z,8.98
2023-01-10T11:04:31.780Z,9.05
2023-01-10T11:05:31.736Z,9.14
2023-01-10T11:06:34.103Z,9.10
2023-01-10T11:07:31.734Z,9.13
2023-01-10T11:08:31.717Z,9.10
2023-01-10T11:09:31.682Z,9.08
2023-01-10T11:10:31.685Z,9.11
2023-01-10T11:11:31.658Z,9.10
2023-01-10T11:12:31.652Z,9.11
2023-01-10T11:13:31.641Z,8.94
2023-01-10T11:14:31.628Z,8.92
2023-01-10T11:15:31.623Z,8.84
2023-01-10T11:16:31.755Z,8.65
2023-01-10T11:17:31.595Z,8.76
2023-01-10T11:18:31.592Z,8.86
2023-01-10T11:19:31.567Z,8.84
2023-01-10T11:20:31.579Z,8.76
2023-01-10T11:21:31.551Z,8.80
2023-01-10T11:22:31.540Z,8.80
2023-01-10T11:23:31.533Z,8.87
2023-01-10T11:24:31.574Z,8.74
2023-01-10T11:25:31.503Z,8.84
2023-01-10T11:26:31.497Z,8.74
2023-01-10T11:27:31.505Z,8.71
2023-01-10T11:28:31.510Z,8.76
2023-01-10T11:29:31.475Z,8.80
2023-01-10T11:30:31.458Z,8.80
2023-01-10T11:31:31.467Z,8.83
2023-01-10T11:32:31.435Z,8.86
2023-01-10T11:33:31.438Z,8.71
2023-01-10T11:34:31.430Z,8.58
2023-01-10T11:35:31.401Z,8.45
2023-01-10T11:36:31.388Z,8.47
2023-01-10T11:37:31.391Z,8.48
2023-01-10T11:38:31.368Z,8.50
2023-01-10T11:39:31.351Z,8.48
2023-01-10T11:40:31.374Z,8.59
2023-01-10T11:41:31.355Z,8.59
2023-01-10T11:42:31.329Z,8.58
2023-01-10T11:43:31.323Z,8.47
2023-01-10T11:44:31.301Z,8.56
2023-01-10T11:45:31.414Z,8.45
2023-01-10T11:46:31.280Z,8.45
2023-01-10T11:47:32.387Z,8.48
2023-01-10T11:48:59.726Z,8.47
2023-01-10T11:49:32.250Z,8.34
2023-01-10T11:50:31.238Z,8.33
2023-01-10T11:51:31.238Z,8.23
2023-01-10T11:52:31.217Z,8.34
2023-01-10T11:53:31.241Z,8.28
2023-01-10T11:54:31.193Z,8.37
2023-01-10T11:55:31.180Z,8.34
2023-01-10T11:56:31.197Z,8.38
2023-01-10T11:57:31.156Z,8.30
2023-01-10T11:58:31.146Z,8.25
2023-01-10T11:59:31.184Z,8.26
2023-01-10T12:00:31.127Z,8.16
2023-01-10T12:01:31.163Z,8.10
2023-01-10T12:02:31.187Z,8.15
2023-01-10T12:03:31.115Z,8.23
2023-01-10T12:04:31.109Z,8.26
2023-01-10T12:05:31.113Z,8.26
2023-01-10T12:06:31.072Z,8.26
2023-01-10T12:07:31.075Z,8.22
2023-01-10T12:08:31.041Z,8.28
2023-01-10T12:09:31.039Z,8.34
2023-01-10T12:10:31.022Z,8.25
2023-01-10T12:11:31.021Z,8.37
2023-01-10T12:12:31.111Z,8.33
2023-01-10T12:13:30.987Z,8.47
2023-01-10T12:14:30.974Z,8.29
2023-01-10T12:15:30.982Z,8.19
2023-01-10T12:16:31.081Z,8.28
2023-01-10T12:17:30.943Z,8.30
2023-01-10T12:18:30.940Z,8.33
2023-01-10T12:19:30.919Z,8.33
2023-01-10T12:20:30.915Z,8.33
2023-01-10T12:21:30.899Z,8.25
2023-01-10T12:22:30.905Z,8.33
2023-01-10T12:23:30.879Z,8.33
2023-01-10T12:24:30.873Z,8.40
2023-01-10T12:25:30.878Z,8.28
2023-01-10T12:26:30.863Z,8.36
2023-01-10T12:27:30.870Z,8.34
2023-01-10T12:28:30.864Z,8.28
2023-01-10T12:29:30.816Z,8.29
2023-01-10T12:30:30.885Z,8.38
2023-01-10T12:31:30.800Z,8.33
2023-01-10T12:32:30.804Z,8.30
2023-01-10T12:33:30.765Z,8.29
2023-01-10T12:34:30.764Z,8.30
2023-01-10T12:35:30.749Z,8.33
2023-01-10T12:36:30.766Z,8.22
2023-01-10T12:37:30.757Z,8.30
2023-01-10T12:38:30.734Z,8.28
2023-01-10T12:39:30.705Z,8.36
2023-01-10T12:40:30.701Z,8.29
2023-01-10T12:41:30.684Z,8.34
2023-01-10T12:42:30.683Z,8.37
2023-01-10T12:43:30.701Z,8.37
2023-01-10T12:44:30.673Z,8.30
2023-01-10T12:45:30.652Z,8.29
2023-01-10T12:47:00.505Z,8.28
2023-01-10T12:47:31.706Z,8.23
2023-01-10T12:48:30.639Z,8.22
2023-01-10T12:49:30.616Z,8.19
2023-01-10T12:50:30.596Z,8.26
2023-01-10T12:51:30.576Z,8.19
2023-01-10T12:52:30.573Z,8.15
2023-01-10T12:53:30.565Z,8.12
2023-01-10T12:54:30.542Z,8.12
2023-01-10T12:55:30.558Z,8.19
2023-01-10T12:56:30.534Z,8.22
2023-01-10T12:57:30.515Z,8.18
2023-01-10T12:58:30.509Z,8.30
2023-01-10T12:59:37.487Z,8.33
2023-01-10T13:00:37.617Z,8.30
2023-01-10T13:01:31.591Z,8.15
2023-01-10T13:02:30.556Z,8.20
2023-01-10T13:03:33.108Z,8.20
2023-01-10T13:04:30.441Z,8.15
2023-01-10T13:05:30.426Z,8.11
2023-01-10T13:06:30.445Z,8.11
2023-01-10T13:07:30.404Z,8.08
2023-01-10T13:08:30.399Z,8.20
2023-01-10T13:09:30.409Z,8.18
2023-01-10T13:10:30.377Z,8.16
2023-01-10T13:11:30.375Z,8.10
2023-01-10T13:12:30.378Z,8.16
2023-01-10T13:13:30.340Z,8.05
2023-01-10T13:14:30.335Z,8.11
2023-01-10T13:15:30.419Z,8.18
2023-01-10T13:16:30.345Z,8.15
2023-01-10T13:17:30.311Z,8.12
2023-01-10T13:18:30.328Z,8.23
2023-01-10T13:19:30.333Z,8.05
2023-01-10T13:20:30.282Z,8.15